Austin, Texas
Traffic Map
Current Weather Conditions
Austin, Texas
Clear
Clear
79°
Feels Like: 79°
Wind Chill: 79° Ceiling: Unl
Heat Index: 79° Visibility: 10mi
Dew Point: 41° Wind: 0mph
Humidity: 26% Direction: ° ()
Pressure: 29.82in Gusts: 0mph
Raw Report DataKATT 302051Z AUTO 00000KT 10SM CLR 26/05 A2982 RMK AO2 SLP091 T02610050 58027 $
Traffic Incident Summary
Active as of:
Severity:
Category:
InformationThere was an issue retrieving the traffic information for this location. Please try a different location or try again shortly.
Advertisements
Track Severe Weather on mobile